sensor_id;sensor_type;location;lat;lon;timestamp;P1;durP1;ratioP1;P2;durP2;ratioP2
28003;SDS011;15330;51.234;6.754;2023-12-20T00:00:47;10.77;;;5.28;;
28003;SDS011;15330;51.234;6.754;2023-12-20T00:03:12;15.63;;;5.43;;
28003;SDS011;15330;51.234;6.754;2023-12-20T00:05:38;18.88;;;6.03;;
28003;SDS011;15330;51.234;6.754;2023-12-20T00:08:06;11.93;;;5.05;;
28003;SDS011;15330;51.234;6.754;2023-12-20T00:10:31;11.23;;;5.72;;
28003;SDS011;15330;51.234;6.754;2023-12-20T00:12:56;12.65;;;5.93;;
28003;SDS011;15330;51.234;6.754;2023-12-20T00:15:22;13.38;;;6.38;;
28003;SDS011;15330;51.234;6.754;2023-12-20T00:17:47;16.25;;;6.93;;
28003;SDS011;15330;51.234;6.754;2023-12-20T00:20:13;14.70;;;6.15;;
28003;SDS011;15330;51.234;6.754;2023-12-20T00:22:38;15.57;;;5.43;;
28003;SDS011;15330;51.234;6.754;2023-12-20T00:25:03;13.88;;;6.20;;
28003;SDS011;15330;51.234;6.754;2023-12-20T00:27:29;14.80;;;6.97;;
28003;SDS011;15330;51.234;6.754;2023-12-20T00:29:54;12.65;;;5.50;;
28003;SDS011;15330;51.234;6.754;2023-12-20T00:32:20;11.15;;;6.05;;
28003;SDS011;15330;51.234;6.754;2023-12-20T00:34:45;11.75;;;5.82;;
28003;SDS011;15330;51.234;6.754;2023-12-20T00:37:11;15.07;;;5.85;;
28003;SDS011;15330;51.234;6.754;2023-12-20T00:39:36;15.57;;;5.68;;
28003;SDS011;15330;51.234;6.754;2023-12-20T00:42:01;13.02;;;6.40;;
28003;SDS011;15330;51.234;6.754;2023-12-20T00:44:27;16.10;;;6.95;;
28003;SDS011;15330;51.234;6.754;2023-12-20T00:46:52;16.17;;;7.35;;
28003;SDS011;15330;51.234;6.754;2023-12-20T00:49:17;19.10;;;8.07;;
28003;SDS011;15330;51.234;6.754;2023-12-20T00:51:43;21.33;;;8.38;;
28003;SDS011;15330;51.234;6.754;2023-12-20T00:54:08;24.27;;;10.10;;
28003;SDS011;15330;51.234;6.754;2023-12-20T00:56:34;25.23;;;10.00;;
28003;SDS011;15330;51.234;6.754;2023-12-20T00:59:00;23.45;;;10.02;;
28003;SDS011;15330;51.234;6.754;2023-12-20T01:01:25;19.58;;;9.93;;
28003;SDS011;15330;51.234;6.754;2023-12-20T01:03:51;24.23;;;10.40;;
28003;SDS011;15330;51.234;6.754;2023-12-20T01:06:16;24.92;;;10.88;;
28003;SDS011;15330;51.234;6.754;2023-12-20T01:08:42;23.17;;;11.35;;
28003;SDS011;15330;51.234;6.754;2023-12-20T01:11:07;26.95;;;13.68;;
28003;SDS011;15330;51.234;6.754;2023-12-20T01:13:33;30.83;;;16.05;;
28003;SDS011;15330;51.234;6.754;2023-12-20T01:15:58;29.40;;;15.32;;
28003;SDS011;15330;51.234;6.754;2023-12-20T01:18:24;37.35;;;16.80;;
28003;SDS011;15330;51.234;6.754;2023-12-20T01:20:49;34.83;;;17.70;;
28003;SDS011;15330;51.234;6.754;2023-12-20T01:23:14;33.75;;;17.95;;
28003;SDS011;15330;51.234;6.754;2023-12-20T01:25:40;31.77;;;16.95;;
28003;SDS011;15330;51.234;6.754;2023-12-20T01:28:05;31.73;;;17.90;;
28003;SDS011;15330;51.234;6.754;2023-12-20T01:30:30;36.05;;;17.98;;
28003;SDS011;15330;51.234;6.754;2023-12-20T01:32:56;39.00;;;18.17;;
28003;SDS011;15330;51.234;6.754;2023-12-20T01:35:21;34.25;;;19.17;;
28003;SDS011;15330;51.234;6.754;2023-12-20T01:37:46;41.40;;;19.00;;
28003;SDS011;15330;51.234;6.754;2023-12-20T01:40:12;39.58;;;19.10;;
28003;SDS011;15330;51.234;6.754;2023-12-20T01:42:37;34.58;;;19.33;;
28003;SDS011;15330;51.234;6.754;2023-12-20T01:45:03;37.20;;;17.45;;
28003;SDS011;15330;51.234;6.754;2023-12-20T01:47:29;32.88;;;17.25;;
28003;SDS011;15330;51.234;6.754;2023-12-20T01:49:54;41.55;;;17.02;;
28003;SDS011;15330;51.234;6.754;2023-12-20T01:52:21;39.65;;;16.85;;
28003;SDS011;15330;51.234;6.754;2023-12-20T01:54:48;40.50;;;16.90;;
28003;SDS011;15330;51.234;6.754;2023-12-20T01:57:13;32.95;;;18.48;;
28003;SDS011;15330;51.234;6.754;2023-12-20T01:59:39;36.72;;;16.90;;
28003;SDS011;15330;51.234;6.754;2023-12-20T02:02:05;41.88;;;16.90;;
28003;SDS011;15330;51.234;6.754;2023-12-20T02:04:32;35.97;;;16.60;;
28003;SDS011;15330;51.234;6.754;2023-12-20T02:06:58;27.77;;;16.10;;
28003;SDS011;15330;51.234;6.754;2023-12-20T02:09:24;40.50;;;15.73;;
28003;SDS011;15330;51.234;6.754;2023-12-20T02:11:49;27.83;;;14.57;;
28003;SDS011;15330;51.234;6.754;2023-12-20T02:14:15;35.05;;;13.40;;
28003;SDS011;15330;51.234;6.754;2023-12-20T02:16:41;25.95;;;12.40;;
28003;SDS011;15330;51.234;6.754;2023-12-20T02:19:09;29.05;;;12.27;;
28003;SDS011;15330;51.234;6.754;2023-12-20T02:21:39;36.75;;;12.65;;
28003;SDS011;15330;51.234;6.754;2023-12-20T02:24:05;27.60;;;11.65;;
28003;SDS011;15330;51.234;6.754;2023-12-20T02:26:31;32.25;;;12.35;;
28003;SDS011;15330;51.234;6.754;2023-12-20T02:28:58;28.23;;;12.60;;
28003;SDS011;15330;51.234;6.754;2023-12-20T02:31:24;27.08;;;11.52;;
28003;SDS011;15330;51.234;6.754;2023-12-20T02:33:49;25.38;;;11.20;;
28003;SDS011;15330;51.234;6.754;2023-12-20T02:36:15;27.20;;;10.80;;
28003;SDS011;15330;51.234;6.754;2023-12-20T02:38:40;31.77;;;12.07;;
28003;SDS011;15330;51.234;6.754;2023-12-20T02:41:05;24.33;;;10.85;;
28003;SDS011;15330;51.234;6.754;2023-12-20T02:43:31;29.98;;;9.10;;
28003;SDS011;15330;51.234;6.754;2023-12-20T02:45:56;25.30;;;9.40;;
28003;SDS011;15330;51.234;6.754;2023-12-20T02:48:22;23.48;;;7.72;;
28003;SDS011;15330;51.234;6.754;2023-12-20T02:50:47;28.48;;;8.93;;
28003;SDS011;15330;51.234;6.754;2023-12-20T02:53:14;21.40;;;7.63;;
28003;SDS011;15330;51.234;6.754;2023-12-20T02:55:39;24.13;;;7.07;;
28003;SDS011;15330;51.234;6.754;2023-12-20T02:58:05;20.90;;;6.68;;
28003;SDS011;15330;51.234;6.754;2023-12-20T03:00:30;26.27;;;5.70;;
28003;SDS011;15330;51.234;6.754;2023-12-20T03:02:55;20.92;;;5.30;;
28003;SDS011;15330;51.234;6.754;2023-12-20T03:05:21;29.50;;;5.82;;
28003;SDS011;15330;51.234;6.754;2023-12-20T03:07:46;17.60;;;5.07;;
28003;SDS011;15330;51.234;6.754;2023-12-20T03:10:11;19.42;;;4.78;;
28003;SDS011;15330;51.234;6.754;2023-12-20T03:12:37;23.92;;;4.93;;
28003;SDS011;15330;51.234;6.754;2023-12-20T03:15:02;15.05;;;4.53;;
28003;SDS011;15330;51.234;6.754;2023-12-20T03:17:28;18.42;;;4.82;;
28003;SDS011;15330;51.234;6.754;2023-12-20T03:19:53;22.55;;;5.70;;
28003;SDS011;15330;51.234;6.754;2023-12-20T03:22:19;16.02;;;4.97;;
28003;SDS011;15330;51.234;6.754;2023-12-20T03:24:44;18.40;;;4.40;;
28003;SDS011;15330;51.234;6.754;2023-12-20T03:27:09;22.92;;;4.88;;
28003;SDS011;15330;51.234;6.754;2023-12-20T03:29:35;21.00;;;5.65;;
28003;SDS011;15330;51.234;6.754;2023-12-20T03:32:00;13.77;;;4.40;;
28003;SDS011;15330;51.234;6.754;2023-12-20T03:34:26;18.70;;;4.90;;
28003;SDS011;15330;51.234;6.754;2023-12-20T03:36:51;22.05;;;5.68;;
28003;SDS011;15330;51.234;6.754;2023-12-20T03:39:17;23.55;;;5.82;;
28003;SDS011;15330;51.234;6.754;2023-12-20T03:41:42;26.15;;;5.32;;
28003;SDS011;15330;51.234;6.754;2023-12-20T03:44:08;13.25;;;4.30;;
28003;SDS011;15330;51.234;6.754;2023-12-20T03:46:33;19.35;;;5.15;;
28003;SDS011;15330;51.234;6.754;2023-12-20T03:48:59;23.92;;;6.68;;
28003;SDS011;15330;51.234;6.754;2023-12-20T03:51:24;24.60;;;4.82;;
28003;SDS011;15330;51.234;6.754;2023-12-20T03:53:50;21.38;;;5.72;;
28003;SDS011;15330;51.234;6.754;2023-12-20T03:56:15;21.90;;;5.18;;
28003;SDS011;15330;51.234;6.754;2023-12-20T03:58:40;18.67;;;4.82;;
28003;SDS011;15330;51.234;6.754;2023-12-20T04:01:09;21.40;;;4.88;;
28003;SDS011;15330;51.234;6.754;2023-12-20T04:03:38;28.23;;;6.50;;
28003;SDS011;15330;51.234;6.754;2023-12-20T04:06:05;22.73;;;5.30;;
28003;SDS011;15330;51.234;6.754;2023-12-20T04:08:30;22.38;;;4.97;;
28003;SDS011;15330;51.234;6.754;2023-12-20T04:10:56;19.70;;;5.53;;
28003;SDS011;15330;51.234;6.754;2023-12-20T04:13:22;24.05;;;6.40;;
28003;SDS011;15330;51.234;6.754;2023-12-20T04:15:47;27.55;;;6.47;;
28003;SDS011;15330;51.234;6.754;2023-12-20T04:18:15;22.88;;;5.50;;
28003;SDS011;15330;51.234;6.754;2023-12-20T04:20:40;22.83;;;5.82;;
28003;SDS011;15330;51.234;6.754;2023-12-20T04:23:06;25.55;;;5.35;;
28003;SDS011;15330;51.234;6.754;2023-12-20T04:25:31;32.88;;;7.38;;
28003;SDS011;15330;51.234;6.754;2023-12-20T04:27:56;28.85;;;5.90;;
28003;SDS011;15330;51.234;6.754;2023-12-20T04:30:22;17.27;;;5.53;;
28003;SDS011;15330;51.234;6.754;2023-12-20T04:32:47;18.70;;;5.80;;
28003;SDS011;15330;51.234;6.754;2023-12-20T04:35:12;32.13;;;7.05;;
28003;SDS011;15330;51.234;6.754;2023-12-20T04:37:38;24.58;;;7.28;;
28003;SDS011;15330;51.234;6.754;2023-12-20T04:40:03;26.50;;;6.13;;
28003;SDS011;15330;51.234;6.754;2023-12-20T04:42:30;28.52;;;6.85;;
28003;SDS011;15330;51.234;6.754;2023-12-20T04:44:55;25.42;;;6.97;;
28003;SDS011;15330;51.234;6.754;2023-12-20T04:47:21;22.10;;;5.72;;
28003;SDS011;15330;51.234;6.754;2023-12-20T04:49:46;25.45;;;6.70;;
28003;SDS011;15330;51.234;6.754;2023-12-20T04:52:12;29.98;;;7.53;;
28003;SDS011;15330;51.234;6.754;2023-12-20T04:54:37;23.33;;;7.57;;
28003;SDS011;15330;51.234;6.754;2023-12-20T04:57:02;20.67;;;7.68;;
28003;SDS011;15330;51.234;6.754;2023-12-20T04:59:28;26.63;;;7.53;;
28003;SDS011;15330;51.234;6.754;2023-12-20T05:01:54;29.42;;;8.57;;
28003;SDS011;15330;51.234;6.754;2023-12-20T05:04:19;21.40;;;6.88;;
28003;SDS011;15330;51.234;6.754;2023-12-20T05:06:45;26.83;;;7.88;;
28003;SDS011;15330;51.234;6.754;2023-12-20T05:09:10;22.75;;;7.10;;
28003;SDS011;15330;51.234;6.754;2023-12-20T05:11:36;31.10;;;7.10;;
28003;SDS011;15330;51.234;6.754;2023-12-20T05:14:01;30.10;;;6.68;;
28003;SDS011;15330;51.234;6.754;2023-12-20T05:16:26;24.80;;;7.00;;
28003;SDS011;15330;51.234;6.754;2023-12-20T05:18:52;21.95;;;6.65;;
28003;SDS011;15330;51.234;6.754;2023-12-20T05:21:17;19.08;;;6.53;;
28003;SDS011;15330;51.234;6.754;2023-12-20T05:23:43;27.08;;;6.50;;
28003;SDS011;15330;51.234;6.754;2023-12-20T05:26:08;25.25;;;6.80;;
28003;SDS011;15330;51.234;6.754;2023-12-20T05:28:34;25.90;;;7.07;;
28003;SDS011;15330;51.234;6.754;2023-12-20T05:30:59;25.85;;;6.43;;
28003;SDS011;15330;51.234;6.754;2023-12-20T05:33:25;24.05;;;7.95;;
28003;SDS011;15330;51.234;6.754;2023-12-20T05:35:50;22.15;;;7.28;;
28003;SDS011;15330;51.234;6.754;2023-12-20T05:38:15;22.60;;;6.22;;
28003;SDS011;15330;51.234;6.754;2023-12-20T05:40:41;24.48;;;6.93;;
28003;SDS011;15330;51.234;6.754;2023-12-20T05:43:07;30.98;;;6.97;;
28003;SDS011;15330;51.234;6.754;2023-12-20T05:45:32;25.40;;;5.80;;
28003;SDS011;15330;51.234;6.754;2023-12-20T05:47:57;22.13;;;6.22;;
28003;SDS011;15330;51.234;6.754;2023-12-20T05:50:23;31.77;;;6.95;;
28003;SDS011;15330;51.234;6.754;2023-12-20T05:52:49;31.63;;;6.95;;
28003;SDS011;15330;51.234;6.754;2023-12-20T05:55:15;23.75;;;6.63;;
28003;SDS011;15330;51.234;6.754;2023-12-20T05:57:40;34.45;;;7.50;;
28003;SDS011;15330;51.234;6.754;2023-12-20T06:00:08;22.90;;;6.22;;
28003;SDS011;15330;51.234;6.754;2023-12-20T06:02:34;33.60;;;8.10;;
28003;SDS011;15330;51.234;6.754;2023-12-20T06:05:01;25.98;;;7.30;;
28003;SDS011;15330;51.234;6.754;2023-12-20T06:07:27;25.70;;;7.10;;
28003;SDS011;15330;51.234;6.754;2023-12-20T06:09:53;32.88;;;7.78;;
28003;SDS011;15330;51.234;6.754;2023-12-20T06:12:18;30.80;;;7.88;;
28003;SDS011;15330;51.234;6.754;2023-12-20T06:14:43;24.52;;;7.57;;
28003;SDS011;15330;51.234;6.754;2023-12-20T06:17:09;28.52;;;8.18;;
28003;SDS011;15330;51.234;6.754;2023-12-20T06:19:34;30.63;;;7.97;;
28003;SDS011;15330;51.234;6.754;2023-12-20T06:21:59;23.23;;;7.90;;
28003;SDS011;15330;51.234;6.754;2023-12-20T06:24:25;44.28;;;10.23;;
28003;SDS011;15330;51.234;6.754;2023-12-20T06:26:53;28.10;;;8.27;;
28003;SDS011;15330;51.234;6.754;2023-12-20T06:29:19;19.90;;;7.15;;
28003;SDS011;15330;51.234;6.754;2023-12-20T06:31:44;23.52;;;7.40;;
28003;SDS011;15330;51.234;6.754;2023-12-20T06:34:10;31.50;;;8.63;;
28003;SDS011;15330;51.234;6.754;2023-12-20T06:36:35;37.17;;;8.02;;
28003;SDS011;15330;51.234;6.754;2023-12-20T06:39:00;21.75;;;7.45;;
28003;SDS011;15330;51.234;6.754;2023-12-20T06:41:26;21.05;;;7.68;;
28003;SDS011;15330;51.234;6.754;2023-12-20T06:43:51;30.33;;;7.75;;
28003;SDS011;15330;51.234;6.754;2023-12-20T06:46:18;23.33;;;7.93;;
28003;SDS011;15330;51.234;6.754;2023-12-20T06:48:43;30.67;;;7.50;;
28003;SDS011;15330;51.234;6.754;2023-12-20T06:51:11;26.25;;;8.32;;
28003;SDS011;15330;51.234;6.754;2023-12-20T06:53:39;28.25;;;8.35;;
28003;SDS011;15330;51.234;6.754;2023-12-20T06:56:04;42.50;;;8.68;;
28003;SDS011;15330;51.234;6.754;2023-12-20T06:58:30;29.25;;;7.88;;
28003;SDS011;15330;51.234;6.754;2023-12-20T07:00:55;29.67;;;7.88;;
28003;SDS011;15330;51.234;6.754;2023-12-20T07:03:21;26.85;;;7.95;;
28003;SDS011;15330;51.234;6.754;2023-12-20T07:05:46;24.38;;;8.13;;
28003;SDS011;15330;51.234;6.754;2023-12-20T07:08:12;30.38;;;8.77;;
28003;SDS011;15330;51.234;6.754;2023-12-20T07:10:39;31.40;;;7.50;;
28003;SDS011;15330;51.234;6.754;2023-12-20T07:13:04;24.73;;;6.78;;
28003;SDS011;15330;51.234;6.754;2023-12-20T07:15:30;20.88;;;6.97;;
28003;SDS011;15330;51.234;6.754;2023-12-20T07:17:55;28.98;;;7.13;;
28003;SDS011;15330;51.234;6.754;2023-12-20T07:20:21;23.25;;;7.40;;
28003;SDS011;15330;51.234;6.754;2023-12-20T07:22:46;30.75;;;7.57;;
28003;SDS011;15330;51.234;6.754;2023-12-20T07:25:11;23.02;;;6.70;;
28003;SDS011;15330;51.234;6.754;2023-12-20T07:27:37;25.88;;;6.93;;
28003;SDS011;15330;51.234;6.754;2023-12-20T07:30:02;23.67;;;7.07;;
28003;SDS011;15330;51.234;6.754;2023-12-20T07:32:28;26.40;;;7.78;;
28003;SDS011;15330;51.234;6.754;2023-12-20T07:34:53;21.33;;;6.78;;
28003;SDS011;15330;51.234;6.754;2023-12-20T07:37:19;24.23;;;7.43;;
28003;SDS011;15330;51.234;6.754;2023-12-20T07:39:46;31.40;;;7.22;;
28003;SDS011;15330;51.234;6.754;2023-12-20T07:42:11;32.03;;;7.93;;
28003;SDS011;15330;51.234;6.754;2023-12-20T07:44:36;26.10;;;7.10;;
28003;SDS011;15330;51.234;6.754;2023-12-20T07:47:02;37.33;;;7.78;;
28003;SDS011;15330;51.234;6.754;2023-12-20T07:49:27;24.75;;;7.20;;
28003;SDS011;15330;51.234;6.754;2023-12-20T07:51:53;20.80;;;7.78;;
28003;SDS011;15330;51.234;6.754;2023-12-20T07:54:18;32.53;;;7.88;;
28003;SDS011;15330;51.234;6.754;2023-12-20T07:56:44;31.23;;;7.47;;
28003;SDS011;15330;51.234;6.754;2023-12-20T07:59:10;21.70;;;7.00;;
28003;SDS011;15330;51.234;6.754;2023-12-20T08:01:35;27.35;;;8.32;;
28003;SDS011;15330;51.234;6.754;2023-12-20T08:04:01;25.67;;;6.80;;
28003;SDS011;15330;51.234;6.754;2023-12-20T08:06:26;28.50;;;7.60;;
28003;SDS011;15330;51.234;6.754;2023-12-20T08:08:51;31.30;;;8.23;;
28003;SDS011;15330;51.234;6.754;2023-12-20T08:11:17;22.15;;;7.93;;
28003;SDS011;15330;51.234;6.754;2023-12-20T08:13:42;27.13;;;7.78;;
28003;SDS011;15330;51.234;6.754;2023-12-20T08:16:08;31.05;;;7.60;;
28003;SDS011;15330;51.234;6.754;2023-12-20T08:18:34;33.22;;;7.13;;
28003;SDS011;15330;51.234;6.754;2023-12-20T08:20:59;28.63;;;7.43;;
28003;SDS011;15330;51.234;6.754;2023-12-20T08:23:25;23.65;;;7.22;;
28003;SDS011;15330;51.234;6.754;2023-12-20T08:25:50;27.05;;;7.50;;
28003;SDS011;15330;51.234;6.754;2023-12-20T08:28:16;26.80;;;7.35;;
28003;SDS011;15330;51.234;6.754;2023-12-20T08:30:41;18.52;;;6.55;;
28003;SDS011;15330;51.234;6.754;2023-12-20T08:33:07;23.60;;;6.82;;
28003;SDS011;15330;51.234;6.754;2023-12-20T08:35:38;24.70;;;6.90;;
28003;SDS011;15330;51.234;6.754;2023-12-20T08:38:05;26.77;;;6.85;;
28003;SDS011;15330;51.234;6.754;2023-12-20T08:40:32;17.98;;;5.75;;
28003;SDS011;15330;51.234;6.754;2023-12-20T08:42:57;24.02;;;6.40;;
28003;SDS011;15330;51.234;6.754;2023-12-20T08:45:23;31.02;;;6.63;;
28003;SDS011;15330;51.234;6.754;2023-12-20T08:47:49;23.08;;;5.80;;
28003;SDS011;15330;51.234;6.754;2023-12-20T08:50:15;23.27;;;6.95;;
28003;SDS011;15330;51.234;6.754;2023-12-20T08:52:40;26.50;;;6.22;;
28003;SDS011;15330;51.234;6.754;2023-12-20T08:55:06;29.02;;;7.10;;
28003;SDS011;15330;51.234;6.754;2023-12-20T08:57:31;21.48;;;6.13;;
28003;SDS011;15330;51.234;6.754;2023-12-20T08:59:57;24.00;;;5.93;;
28003;SDS011;15330;51.234;6.754;2023-12-20T09:02:22;24.33;;;5.90;;
28003;SDS011;15330;51.234;6.754;2023-12-20T09:04:48;27.25;;;6.07;;
28003;SDS011;15330;51.234;6.754;2023-12-20T09:07:23;33.40;;;5.90;;
28003;SDS011;15330;51.234;6.754;2023-12-20T09:09:52;21.48;;;6.22;;
28003;SDS011;15330;51.234;6.754;2023-12-20T09:12:18;25.63;;;5.70;;
28003;SDS011;15330;51.234;6.754;2023-12-20T09:14:45;23.35;;;5.90;;
28003;SDS011;15330;51.234;6.754;2023-12-20T09:17:14;22.85;;;5.95;;
28003;SDS011;15330;51.234;6.754;2023-12-20T09:19:41;24.92;;;6.05;;
28003;SDS011;15330;51.234;6.754;2023-12-20T09:22:07;17.92;;;5.30;;
28003;SDS011;15330;51.234;6.754;2023-12-20T09:24:32;22.63;;;5.50;;
28003;SDS011;15330;51.234;6.754;2023-12-20T09:26:58;19.17;;;7.15;;
28003;SDS011;15330;51.234;6.754;2023-12-20T09:29:23;24.00;;;6.20;;
28003;SDS011;15330;51.234;6.754;2023-12-20T09:31:49;21.92;;;5.15;;
28003;SDS011;15330;51.234;6.754;2023-12-20T09:34:15;27.73;;;5.80;;
28003;SDS011;15330;51.234;6.754;2023-12-20T09:36:42;23.98;;;5.57;;
28003;SDS011;15330;51.234;6.754;2023-12-20T09:39:15;20.63;;;5.25;;
28003;SDS011;15330;51.234;6.754;2023-12-20T09:41:46;13.75;;;4.43;;
28003;SDS011;15330;51.234;6.754;2023-12-20T09:44:23;27.60;;;6.53;;
28003;SDS011;15330;51.234;6.754;2023-12-20T09:46:49;20.02;;;5.07;;
28003;SDS011;15330;51.234;6.754;2023-12-20T09:49:15;20.10;;;5.18;;
28003;SDS011;15330;51.234;6.754;2023-12-20T09:51:43;25.13;;;5.40;;
28003;SDS011;15330;51.234;6.754;2023-12-20T09:54:11;23.25;;;6.65;;
28003;SDS011;15330;51.234;6.754;2023-12-20T09:56:39;13.38;;;4.60;;
28003;SDS011;15330;51.234;6.754;2023-12-20T09:59:04;25.52;;;5.20;;
28003;SDS011;15330;51.234;6.754;2023-12-20T10:01:30;29.70;;;6.43;;
28003;SDS011;15330;51.234;6.754;2023-12-20T10:03:56;25.75;;;5.22;;
28003;SDS011;15330;51.234;6.754;2023-12-20T10:06:25;17.13;;;4.65;;
28003;SDS011;15330;51.234;6.754;2023-12-20T10:08:50;27.23;;;5.53;;
28003;SDS011;15330;51.234;6.754;2023-12-20T10:11:16;21.20;;;5.55;;
28003;SDS011;15330;51.234;6.754;2023-12-20T10:13:42;19.38;;;5.43;;
28003;SDS011;15330;51.234;6.754;2023-12-20T10:16:07;18.88;;;5.20;;
28003;SDS011;15330;51.234;6.754;2023-12-20T10:18:33;22.05;;;5.38;;
28003;SDS011;15330;51.234;6.754;2023-12-20T10:20:58;18.20;;;5.20;;
28003;SDS011;15330;51.234;6.754;2023-12-20T10:23:25;20.63;;;5.20;;
28003;SDS011;15330;51.234;6.754;2023-12-20T10:25:57;20.67;;;5.78;;
28003;SDS011;15330;51.234;6.754;2023-12-20T10:28:23;24.75;;;5.93;;
28003;SDS011;15330;51.234;6.754;2023-12-20T10:30:52;30.27;;;6.18;;
28003;SDS011;15330;51.234;6.754;2023-12-20T10:33:27;23.55;;;4.90;;
28003;SDS011;15330;51.234;6.754;2023-12-20T10:35:53;28.38;;;5.13;;
28003;SDS011;15330;51.234;6.754;2023-12-20T10:38:20;27.90;;;5.40;;
28003;SDS011;15330;51.234;6.754;2023-12-20T10:40:45;28.15;;;5.30;;
28003;SDS011;15330;51.234;6.754;2023-12-20T10:43:11;24.33;;;6.28;;
28003;SDS011;15330;51.234;6.754;2023-12-20T10:45:37;16.55;;;5.25;;
28003;SDS011;15330;51.234;6.754;2023-12-20T10:48:03;17.70;;;4.32;;
28003;SDS011;15330;51.234;6.754;2023-12-20T10:50:29;25.92;;;4.82;;
28003;SDS011;15330;51.234;6.754;2023-12-20T10:52:56;18.25;;;4.97;;
28003;SDS011;15330;51.234;6.754;2023-12-20T10:55:22;18.08;;;5.13;;
28003;SDS011;15330;51.234;6.754;2023-12-20T10:57:49;19.70;;;4.65;;
28003;SDS011;15330;51.234;6.754;2023-12-20T11:00:16;20.38;;;4.85;;
28003;SDS011;15330;51.234;6.754;2023-12-20T11:02:43;20.45;;;4.72;;
28003;SDS011;15330;51.234;6.754;2023-12-20T11:05:28;14.82;;;4.82;;
28003;SDS011;15330;51.234;6.754;2023-12-20T11:07:58;23.63;;;5.70;;
28003;SDS011;15330;51.234;6.754;2023-12-20T11:10:31;19.50;;;5.47;;
28003;SDS011;15330;51.234;6.754;2023-12-20T11:13:22;24.38;;;5.03;;
28003;SDS011;15330;51.234;6.754;2023-12-20T11:15:52;21.27;;;5.35;;
28003;SDS011;15330;51.234;6.754;2023-12-20T11:18:17;21.58;;;4.82;;
28003;SDS011;15330;51.234;6.754;2023-12-20T11:20:43;26.90;;;5.88;;
28003;SDS011;15330;51.234;6.754;2023-12-20T11:23:08;22.75;;;6.22;;
28003;SDS011;15330;51.234;6.754;2023-12-20T11:25:47;25.08;;;5.68;;
28003;SDS011;15330;51.234;6.754;2023-12-20T11:28:22;28.40;;;5.63;;
28003;SDS011;15330;51.234;6.754;2023-12-20T11:30:50;22.70;;;5.47;;
28003;SDS011;15330;51.234;6.754;2023-12-20T11:33:21;16.88;;;4.93;;
28003;SDS011;15330;51.234;6.754;2023-12-20T11:35:50;31.95;;;7.40;;
28003;SDS011;15330;51.234;6.754;2023-12-20T11:38:16;24.02;;;5.13;;
28003;SDS011;15330;51.234;6.754;2023-12-20T11:40:42;22.65;;;5.15;;
28003;SDS011;15330;51.234;6.754;2023-12-20T11:43:08;26.02;;;5.20;;
28003;SDS011;15330;51.234;6.754;2023-12-20T11:45:34;26.48;;;5.75;;
28003;SDS011;15330;51.234;6.754;2023-12-20T11:48:00;20.70;;;5.45;;
28003;SDS011;15330;51.234;6.754;2023-12-20T11:50:27;18.13;;;5.00;;
28003;SDS011;15330;51.234;6.754;2023-12-20T11:52:54;17.60;;;5.75;;
28003;SDS011;15330;51.234;6.754;2023-12-20T11:55:23;21.00;;;4.70;;
28003;SDS011;15330;51.234;6.754;2023-12-20T11:57:49;19.55;;;5.43;;
28003;SDS011;15330;51.234;6.754;2023-12-20T12:00:16;17.35;;;5.40;;
28003;SDS011;15330;51.234;6.754;2023-12-20T12:02:42;20.75;;;5.35;;
28003;SDS011;15330;51.234;6.754;2023-12-20T12:05:08;21.17;;;5.47;;
28003;SDS011;15330;51.234;6.754;2023-12-20T12:07:34;20.30;;;4.72;;
28003;SDS011;15330;51.234;6.754;2023-12-20T12:10:00;17.65;;;4.88;;
28003;SDS011;15330;51.234;6.754;2023-12-20T12:12:25;24.00;;;5.30;;
28003;SDS011;15330;51.234;6.754;2023-12-20T12:14:52;21.63;;;5.03;;
28003;SDS011;15330;51.234;6.754;2023-12-20T12:17:18;21.63;;;5.10;;
28003;SDS011;15330;51.234;6.754;2023-12-20T12:19:43;17.65;;;5.43;;
28003;SDS011;15330;51.234;6.754;2023-12-20T12:22:13;24.88;;;5.18;;
28003;SDS011;15330;51.234;6.754;2023-12-20T12:24:40;19.65;;;5.15;;
28003;SDS011;15330;51.234;6.754;2023-12-20T12:27:06;21.27;;;5.50;;
28003;SDS011;15330;51.234;6.754;2023-12-20T12:29:32;18.23;;;5.57;;
28003;SDS011;15330;51.234;6.754;2023-12-20T12:31:58;22.85;;;5.93;;
28003;SDS011;15330;51.234;6.754;2023-12-20T12:34:24;21.20;;;5.80;;
28003;SDS011;15330;51.234;6.754;2023-12-20T12:36:52;28.67;;;5.93;;
28003;SDS011;15330;51.234;6.754;2023-12-20T12:39:17;18.77;;;5.82;;
28003;SDS011;15330;51.234;6.754;2023-12-20T12:41:43;22.48;;;4.97;;
28003;SDS011;15330;51.234;6.754;2023-12-20T12:44:09;19.00;;;6.10;;
28003;SDS011;15330;51.234;6.754;2023-12-20T12:46:34;22.50;;;6.03;;
28003;SDS011;15330;51.234;6.754;2023-12-20T12:49:00;18.35;;;5.55;;
28003;SDS011;15330;51.234;6.754;2023-12-20T12:51:25;22.13;;;6.80;;
28003;SDS011;15330;51.234;6.754;2023-12-20T12:53:51;20.23;;;6.32;;
28003;SDS011;15330;51.234;6.754;2023-12-20T12:56:16;17.40;;;6.05;;
28003;SDS011;15330;51.234;6.754;2023-12-20T12:58:42;26.67;;;6.18;;
28003;SDS011;15330;51.234;6.754;2023-12-20T13:01:07;26.42;;;6.50;;
28003;SDS011;15330;51.234;6.754;2023-12-20T13:03:33;23.80;;;8.45;;
28003;SDS011;15330;51.234;6.754;2023-12-20T13:05:59;21.15;;;6.45;;
28003;SDS011;15330;51.234;6.754;2023-12-20T13:08:25;25.13;;;7.22;;
28003;SDS011;15330;51.234;6.754;2023-12-20T13:10:50;29.40;;;7.35;;
28003;SDS011;15330;51.234;6.754;2023-12-20T13:13:15;29.92;;;7.85;;
28003;SDS011;15330;51.234;6.754;2023-12-20T13:15:41;25.25;;;7.72;;
28003;SDS011;15330;51.234;6.754;2023-12-20T13:18:07;20.70;;;7.43;;
28003;SDS011;15330;51.234;6.754;2023-12-20T13:20:32;24.27;;;7.95;;
28003;SDS011;15330;51.234;6.754;2023-12-20T13:22:58;27.65;;;8.18;;
28003;SDS011;15330;51.234;6.754;2023-12-20T13:25:24;24.50;;;8.73;;
28003;SDS011;15330;51.234;6.754;2023-12-20T13:27:49;21.00;;;7.80;;
28003;SDS011;15330;51.234;6.754;2023-12-20T13:30:16;26.45;;;8.65;;
28003;SDS011;15330;51.234;6.754;2023-12-20T13:32:42;23.63;;;8.88;;
28003;SDS011;15330;51.234;6.754;2023-12-20T13:35:07;20.08;;;8.23;;
28003;SDS011;15330;51.234;6.754;2023-12-20T13:37:33;26.85;;;8.75;;
28003;SDS011;15330;51.234;6.754;2023-12-20T13:39:59;30.52;;;8.63;;
28003;SDS011;15330;51.234;6.754;2023-12-20T13:42:24;29.65;;;9.38;;
28003;SDS011;15330;51.234;6.754;2023-12-20T13:44:52;28.05;;;8.65;;
28003;SDS011;15330;51.234;6.754;2023-12-20T13:47:18;25.48;;;9.68;;
28003;SDS011;15330;51.234;6.754;2023-12-20T13:49:44;26.88;;;8.45;;
28003;SDS011;15330;51.234;6.754;2023-12-20T13:52:10;30.30;;;9.23;;
28003;SDS011;15330;51.234;6.754;2023-12-20T13:54:36;22.40;;;9.18;;
28003;SDS011;15330;51.234;6.754;2023-12-20T13:57:02;21.42;;;8.73;;
28003;SDS011;15330;51.234;6.754;2023-12-20T13:59:28;29.00;;;8.45;;
28003;SDS011;15330;51.234;6.754;2023-12-20T14:01:53;21.63;;;8.45;;
28003;SDS011;15330;51.234;6.754;2023-12-20T14:04:19;19.77;;;7.75;;
28003;SDS011;15330;51.234;6.754;2023-12-20T14:06:46;25.40;;;8.93;;
28003;SDS011;15330;51.234;6.754;2023-12-20T14:09:12;28.45;;;8.45;;
28003;SDS011;15330;51.234;6.754;2023-12-20T14:11:37;23.23;;;8.07;;
28003;SDS011;15330;51.234;6.754;2023-12-20T14:14:06;20.13;;;7.57;;
28003;SDS011;15330;51.234;6.754;2023-12-20T14:16:32;20.08;;;7.78;;
28003;SDS011;15330;51.234;6.754;2023-12-20T14:18:58;18.60;;;7.43;;
28003;SDS011;15330;51.234;6.754;2023-12-20T14:21:23;21.10;;;7.18;;
28003;SDS011;15330;51.234;6.754;2023-12-20T14:23:49;19.48;;;6.47;;
28003;SDS011;15330;51.234;6.754;2023-12-20T14:26:14;18.45;;;7.55;;